Time;durP1;ratioP1;P1;durP2;ratioP2;P2;SDS_P1;SDS_P2;PMS_P1;PMS_P2;Temp;Humidity;BMP_temperature;BMP_pressure;BME280_temperature;BME280_humidity;BME280_pressure;Samples;Min_cycle;Max_cycle;Signal;HPM_P1;HPM_P2
2022/09/15 00:01:18;;;;;;;7.80;2.80;;;26.30;82.50;;;;;;6338302;22;20049;-74
2022/09/15 00:03:44;;;;;;;3.45;2.45;;;26.30;82.70;;;;;;6336405;22;19998;-79
2022/09/15 00:06:10;;;;;;;3.25;2.30;;;26.20;82.80;;;;;;6309695;22;20010;-78
2022/09/15 00:08:36;;;;;;;5.45;2.38;;;26.20;82.90;;;;;;6308826;22;20010;-78
2022/09/15 00:11:21;;;;;;;5.85;2.60;;;26.20;82.90;;;;;;6336630;22;20002;-78
2022/09/15 00:13:48;;;;;;;3.42;2.38;;;26.20;83.00;;;;;;6309613;22;20502;-78
2022/09/15 00:16:19;;;;;;;3.35;2.28;;;26.20;82.90;;;;;;6339402;22;20010;-73
2022/09/15 00:18:45;;;;;;;4.05;1.95;;;26.20;82.80;;;;;;6337463;22;20074;-73
2022/09/15 00:21:20;;;;;;;4.45;2.20;;;26.20;82.80;;;;;;6338241;22;20009;-73
2022/09/15 00:23:47;;;;;;;6.35;3.13;;;26.20;82.80;;;;;;6337456;22;19999;-73
2022/09/15 00:26:17;;;;;;;5.05;2.53;;;26.20;82.90;;;;;;6339080;22;20002;-73
2022/09/15 00:28:43;;;;;;;6.30;2.90;;;26.20;82.80;;;;;;6339124;22;20030;-73
2022/09/15 00:31:15;;;;;;;7.82;2.72;;;26.20;82.90;;;;;;6339297;22;20003;-73
2022/09/15 00:33:42;;;;;;;6.10;2.58;;;26.20;82.90;;;;;;6338114;22;19994;-73
2022/09/15 00:36:10;;;;;;;3.80;2.25;;;26.20;82.80;;;;;;6311310;22;20018;-73
2022/09/15 00:38:36;;;;;;;6.40;3.05;;;26.20;83.00;;;;;;6339261;22;20005;-73
2022/09/15 00:41:04;;;;;;;5.45;2.55;;;26.20;83.00;;;;;;6338800;22;20003;-73
2022/09/15 00:43:50;;;;;;;8.65;2.38;;;26.20;83.00;;;;;;6338397;22;20025;-73
2022/09/15 00:46:21;;;;;;;5.95;2.40;;;26.20;83.20;;;;;;6339068;22;20056;-74
2022/09/15 00:48:59;;;;;;;4.43;2.25;;;26.20;83.20;;;;;;6339150;22;20030;-74
2022/09/15 00:51:51;;;;;;;7.50;2.65;;;26.20;83.20;;;;;;6339360;22;20022;-74
2022/09/15 00:54:28;;;;;;;4.75;2.15;;;26.20;83.50;;;;;;6338182;22;19999;-76
2022/09/15 00:56:59;;;;;;;7.85;3.13;;;26.20;83.50;;;;;;6339321;22;20006;-76
2022/09/15 00:59:29;;;;;;;6.97;2.40;;;26.20;83.70;;;;;;6338866;22;20006;-76
2022/09/15 01:02:02;;;;;;;5.90;2.10;;;26.20;83.90;;;;;;6338359;22;20077;-76
2022/09/15 01:04:27;;;;;;;10.50;2.38;;;26.20;84.00;;;;;;6338745;22;20073;-76
2022/09/15 01:07:00;;;;;;;5.85;2.17;;;26.10;84.10;;;;;;6311158;22;20091;-78
2022/09/15 01:09:44;;;;;;;5.60;2.40;;;26.10;84.30;;;;;;6338420;22;20070;-77
2022/09/15 01:12:10;;;;;;;4.57;2.08;;;26.10;84.30;;;;;;6338613;22;20439;-77
2022/09/15 01:14:35;;;;;;;5.50;2.33;;;26.10;84.20;;;;;;6339063;22;20002;-77
2022/09/15 01:17:39;;;;;;;3.72;1.80;;;26.10;84.30;;;;;;6338437;22;20003;-76
2022/09/15 01:20:34;;;;;;;10.13;2.20;;;26.10;84.30;;;;;;6338429;22;20625;-76
2022/09/15 01:23:37;;;;;;;5.75;1.92;;;26.10;84.40;;;;;;6337501;22;20429;-77
2022/09/15 01:26:18;;;;;;;9.43;2.40;;;26.10;84.60;;;;;;6338344;22;20003;-78
2022/09/15 01:29:28;;;;;;;10.25;2.20;;;26.00;84.20;;;;;;6311210;22;19999;-78
2022/09/15 01:35:07;;;;;;;6.30;1.77;;;26.00;83.70;;;;;;6338539;22;20440;-78
2022/09/15 01:37:38;;;;;;;9.25;1.63;;;26.00;83.30;;;;;;6338199;22;20120;-80
2022/09/15 01:40:08;;;;;;;4.57;1.50;;;26.00;83.10;;;;;;6338928;22;20007;-79
2022/09/15 01:42:36;;;;;;;5.32;1.80;;;26.00;82.90;;;;;;6337987;22;20408;-79
2022/09/15 01:45:10;;;;;;;7.38;1.85;;;26.00;82.80;;;;;;6338981;22;20006;-80
2022/09/15 01:47:37;;;;;;;6.97;1.73;;;26.00;83.30;;;;;;6338702;22;20417;-79
2022/09/15 01:50:10;;;;;;;4.93;1.92;;;26.00;82.90;;;;;;6333965;22;20066;-78
2022/09/15 01:52:41;;;;;;;5.63;1.30;;;25.90;83.00;;;;;;6316511;22;20029;-79
2022/09/15 01:55:17;;;;;;;9.65;2.00;;;25.90;82.90;;;;;;6309754;22;20046;-76
2022/09/15 01:57:44;;;;;;;5.30;1.80;;;25.90;82.90;;;;;;6337727;22;20021;-76
2022/09/15 02:00:10;;;;;;;3.25;1.10;;;25.90;83.50;;;;;;6338482;22;20052;-74
2022/09/15 02:02:51;;;;;;;7.18;1.38;;;25.90;83.00;;;;;;6337519;22;20006;-75
2022/09/15 02:05:46;;;;;;;4.13;1.55;;;25.90;82.90;;;;;;6337547;22;20309;-74
2022/09/15 02:08:24;;;;;;;4.68;1.42;;;25.80;82.80;;;;;;6338373;22;20002;-74
2022/09/15 02:11:19;;;;;;;2.65;1.40;;;25.80;82.80;;;;;;6337890;22;20009;-75
2022/09/15 02:13:55;;;;;;;5.30;1.25;;;25.80;82.90;;;;;;6337108;22;20124;-74
2022/09/15 02:16:24;;;;;;;3.45;1.60;;;25.80;82.80;;;;;;6338526;22;20002;-75
2022/09/15 02:19:03;;;;;;;2.40;1.10;;;25.70;82.60;;;;;;6338652;22;20007;-75
2022/09/15 02:21:39;;;;;;;4.38;1.10;;;25.70;82.40;;;;;;6337721;22;20009;-75
2022/09/15 02:24:11;;;;;;;3.80;1.17;;;25.70;82.50;;;;;;6309188;22;20006;-76
2022/09/15 02:26:38;;;;;;;4.47;1.13;;;25.70;82.50;;;;;;6337970;22;20461;-75
2022/09/15 02:29:08;;;;;;;3.47;1.25;;;25.60;82.30;;;;;;6338548;22;20298;-75
2022/09/15 02:31:38;;;;;;;4.20;1.40;;;25.60;82.00;;;;;;6337958;22;19995;-75
2022/09/15 02:34:12;;;;;;;2.58;0.95;;;25.60;81.90;;;;;;6309271;22;20345;-75
2022/09/15 02:36:40;;;;;;;4.97;1.40;;;25.60;81.70;;;;;;6337713;22;20029;-75
2022/09/15 02:39:13;;;;;;;4.35;1.40;;;25.60;81.60;;;;;;6338526;22;20010;-75
2022/09/15 02:41:39;;;;;;;5.45;1.50;;;25.60;81.40;;;;;;6337382;22;19999;-75
2022/09/15 02:44:08;;;;;;;3.83;1.15;;;25.60;81.00;;;;;;6337509;22;20025;-75
2022/09/15 02:46:34;;;;;;;5.90;1.10;;;25.60;80.90;;;;;;6337719;22;20003;-76
2022/09/15 02:49:00;;;;;;;3.90;1.13;;;25.60;80.90;;;;;;6337840;22;20020;-76
2022/09/15 02:51:25;;;;;;;4.32;1.13;;;25.60;80.90;;;;;;6338218;22;20472;-76
2022/09/15 02:53:52;;;;;;;6.40;1.40;;;25.60;80.40;;;;;;6337918;22;20405;-76
2022/09/15 02:56:36;;;;;;;3.60;1.20;;;25.50;80.50;;;;;;6310469;22;20011;-76
2022/09/15 02:59:02;;;;;;;2.50;1.15;;;25.50;80.20;;;;;;6337226;22;20314;-74
2022/09/15 03:01:33;;;;;;;4.40;0.85;;;25.50;80.40;;;;;;6337815;22;20010;-75
2022/09/15 03:04:00;;;;;;;3.33;1.40;;;25.50;80.40;;;;;;6309514;22;20007;-75
2022/09/15 03:06:29;;;;;;;3.15;1.05;;;25.50;80.20;;;;;;6337818;22;20033;-76
2022/09/15 03:08:57;;;;;;;3.55;0.80;;;25.40;79.90;;;;;;6337583;22;19995;-75
2022/09/15 03:11:28;;;;;;;4.32;1.20;;;25.40;79.80;;;;;;6338166;22;20003;-75
2022/09/15 03:13:56;;;;;;;3.80;1.15;;;25.40;79.80;;;;;;6309514;22;20777;-74
2022/09/15 03:16:23;;;;;;;5.47;1.20;;;25.40;79.80;;;;;;6338039;22;20003;-75
2022/09/15 03:18:49;;;;;;;2.08;0.85;;;25.40;79.90;;;;;;6310671;22;20143;-75
2022/09/15 03:21:16;;;;;;;4.07;0.90;;;25.30;79.90;;;;;;6338259;22;20030;-75
2022/09/15 03:23:42;;;;;;;2.92;1.15;;;25.30;79.90;;;;;;6336572;22;20003;-75
2022/09/15 03:26:09;;;;;;;2.05;0.65;;;25.30;79.80;;;;;;6336547;22;20034;-75
2022/09/15 03:28:35;;;;;;;1.80;0.90;;;25.30;79.90;;;;;;6336622;22;20556;-75
2022/09/15 03:31:02;;;;;;;2.40;0.70;;;25.30;79.90;;;;;;6310070;22;20055;-75
2022/09/15 03:33:28;;;;;;;3.17;1.13;;;25.40;79.80;;;;;;6309446;22;20010;-75
2022/09/15 03:35:54;;;;;;;1.88;0.85;;;25.40;79.50;;;;;;6337123;22;20030;-75
2022/09/15 03:38:20;;;;;;;3.53;0.70;;;25.40;79.60;;;;;;6337883;22;19998;-75
2022/09/15 03:41:06;;;;;;;5.65;0.95;;;25.30;79.50;;;;;;6337528;22;20003;-76
2022/09/15 03:43:33;;;;;;;4.60;1.25;;;25.30;79.40;;;;;;6337642;22;20003;-78
2022/09/15 03:45:59;;;;;;;6.32;1.63;;;25.20;79.10;;;;;;6337744;22;20007;-76
2022/09/15 03:48:27;;;;;;;3.95;2.05;;;25.00;79.70;;;;;;6338090;22;19995;-77
2022/09/15 03:50:53;;;;;;;5.72;2.15;;;25.00;80.50;;;;;;6309576;22;19998;-77
2022/09/15 03:53:19;;;;;;;3.22;1.73;;;25.00;80.20;;;;;;6337765;22;20044;-77
2022/09/15 03:55:47;;;;;;;3.63;1.98;;;25.00;80.30;;;;;;6308879;22;20102;-77
2022/09/15 03:58:13;;;;;;;3.42;1.70;;;24.90;80.30;;;;;;6337676;22;20397;-75
2022/09/15 04:00:40;;;;;;;3.90;1.40;;;25.00;80.60;;;;;;6309842;22;20009;-75
2022/09/15 04:03:06;;;;;;;4.63;1.40;;;24.90;81.00;;;;;;6336885;22;20003;-74
2022/09/15 04:05:32;;;;;;;3.72;1.80;;;24.90;80.50;;;;;;6336820;22;20010;-74
2022/09/15 04:07:58;;;;;;;2.30;1.40;;;24.90;80.80;;;;;;6336549;22;20064;-74
2022/09/15 04:10:24;;;;;;;3.33;1.50;;;24.80;81.00;;;;;;6337466;22;19999;-74
2022/09/15 04:12:53;;;;;;;4.57;1.20;;;24.70;81.30;;;;;;6336809;22;20005;-74
2022/09/15 04:15:19;;;;;;;3.38;1.40;;;24.60;81.50;;;;;;6337301;22;20002;-74
2022/09/15 04:17:46;;;;;;;4.05;1.17;;;24.60;81.50;;;;;;6309458;22;20007;-74
2022/09/15 04:20:13;;;;;;;2.55;1.23;;;24.60;81.60;;;;;;6336985;22;20432;-74
2022/09/15 04:22:38;;;;;;;2.63;1.35;;;24.70;81.70;;;;;;6309308;22;20041;-73
2022/09/15 04:25:05;;;;;;;4.78;1.42;;;24.70;81.80;;;;;;6336100;22;20006;-73
2022/09/15 04:27:33;;;;;;;6.18;1.50;;;24.70;81.80;;;;;;6310143;22;19999;-73
2022/09/15 04:29:59;;;;;;;6.53;1.40;;;24.80;81.90;;;;;;6338032;22;20380;-73
2022/09/15 04:32:27;;;;;;;4.65;1.55;;;24.80;81.90;;;;;;6311009;22;20053;-73
2022/09/15 04:34:53;;;;;;;3.65;1.48;;;24.80;81.90;;;;;;6338665;22;20002;-73
2022/09/15 04:37:18;;;;;;;2.85;1.50;;;24.80;82.00;;;;;;6337460;22;20017;-76
2022/09/15 04:39:44;;;;;;;4.93;1.63;;;24.80;82.00;;;;;;6337422;22;20409;-75
2022/09/15 04:42:10;;;;;;;4.53;1.48;;;24.80;82.10;;;;;;6338339;22;19998;-76
2022/09/15 04:44:41;;;;;;;4.03;1.67;;;24.80;82.20;;;;;;6337535;22;20010;-76
2022/09/15 04:47:07;;;;;;;3.92;1.40;;;24.80;82.10;;;;;;6338955;22;20009;-77
2022/09/15 04:49:33;;;;;;;2.75;1.27;;;24.80;82.10;;;;;;6338526;22;20447;-77
2022/09/15 04:51:59;;;;;;;5.18;1.40;;;24.80;82.20;;;;;;6338419;22;20074;-78
2022/09/15 04:54:24;;;;;;;9.43;1.90;;;24.70;82.40;;;;;;6338938;22;19998;-80
2022/09/15 04:56:50;;;;;;;3.08;1.38;;;24.70;82.40;;;;;;6311534;22;19999;-80
2022/09/15 04:59:17;;;;;;;5.95;2.15;;;24.60;82.50;;;;;;6338782;22;20450;-80
2022/09/15 05:01:44;;;;;;;6.15;1.95;;;24.50;82.80;;;;;;6339003;22;19998;-80
2022/09/15 05:04:10;;;;;;;4.55;1.80;;;24.40;83.10;;;;;;6339026;22;20451;-80
2022/09/15 05:06:36;;;;;;;7.47;1.90;;;24.40;83.10;;;;;;6310879;22;20010;-80
2022/09/15 05:09:05;;;;;;;8.75;1.90;;;24.40;83.20;;;;;;6337353;22;20002;-79
2022/09/15 05:11:31;;;;;;;4.25;1.50;;;24.40;83.40;;;;;;6337868;22;20002;-80
2022/09/15 05:13:58;;;;;;;4.50;1.35;;;24.40;83.30;;;;;;6338436;22;20048;-80
2022/09/15 05:16:30;;;;;;;6.85;2.08;;;24.50;83.50;;;;;;6337510;22;20002;-77
2022/09/15 05:18:58;;;;;;;5.75;1.80;;;24.50;83.60;;;;;;6336028;22;20413;-78
2022/09/15 05:21:25;;;;;;;4.57;2.08;;;24.60;83.40;;;;;;6335983;22;20048;-75
2022/09/15 05:23:51;;;;;;;6.13;1.50;;;24.60;83.30;;;;;;6337376;22;20049;-78
2022/09/15 05:26:20;;;;;;;2.55;1.48;;;24.60;83.40;;;;;;6309276;22;20011;-75
2022/09/15 05:28:46;;;;;;;2.83;1.73;;;24.60;83.40;;;;;;6336296;22;20002;-75
2022/09/15 05:31:16;;;;;;;5.28;1.50;;;24.70;83.50;;;;;;6336282;22;19995;-78
2022/09/15 05:33:42;;;;;;;;;;;24.70;83.60;;;;;;6309641;22;20002;-78
2022/09/15 05:36:07;;;;;;;3.92;1.48;;;24.70;83.50;;;;;;6337002;22;19921;-78
2022/09/15 05:38:33;;;;;;;4.45;0.90;;;24.80;83.50;;;;;;6310598;22;20446;-78
2022/09/15 05:41:16;;;;;;;3.13;1.35;;;24.80;83.50;;;;;;6309091;22;20680;-79
2022/09/15 05:43:45;;;;;;;4.43;1.50;;;24.80;83.60;;;;;;6338278;22;20034;-78
2022/09/15 05:46:11;;;;;;;3.42;1.00;;;24.90;83.60;;;;;;6337195;22;20329;-74
2022/09/15 05:48:37;;;;;;;6.15;1.48;;;24.90;83.60;;;;;;6339083;22;20030;-74
2022/09/15 05:51:03;;;;;;;5.38;1.20;;;25.00;83.80;;;;;;6337736;22;19995;-74
2022/09/15 05:53:29;;;;;;;2.83;1.52;;;25.00;83.80;;;;;;6338928;22;19999;-74
2022/09/15 05:56:01;;;;;;;5.07;1.40;;;25.00;84.30;;;;;;6337761;22;20006;-75
2022/09/15 05:58:30;;;;;;;6.20;1.95;;;25.00;84.30;;;;;;6338723;22;20006;-74
2022/09/15 06:00:56;;;;;;;7.07;1.98;;;25.00;84.80;;;;;;6338019;22;20060;-74
2022/09/15 06:03:22;;;;;;;7.95;1.80;;;25.00;85.00;;;;;;6310718;22;20009;-74
2022/09/15 06:05:48;;;;;;;4.00;1.83;;;25.00;84.60;;;;;;6337430;22;20375;-74
2022/09/15 06:08:14;;;;;;;2.50;1.50;;;24.90;84.40;;;;;;6338864;22;20005;-74
2022/09/15 06:10:40;;;;;;;5.90;2.15;;;24.90;84.50;;;;;;6338548;22;19994;-74
2022/09/15 06:13:06;;;;;;;3.17;1.70;;;24.90;84.60;;;;;;6337214;22;20010;-74
2022/09/15 06:15:32;;;;;;;7.65;2.10;;;24.90;84.50;;;;;;6336481;22;20002;-74
2022/09/15 06:17:58;;;;;;;4.97;1.77;;;24.90;84.50;;;;;;6337393;22;20006;-74
2022/09/15 06:20:24;;;;;;;6.07;2.33;;;24.90;84.50;;;;;;6337367;22;20030;-75
2022/09/15 06:22:50;;;;;;;5.68;1.95;;;24.90;84.50;;;;;;6338011;22;20052;-74
2022/09/15 06:25:16;;;;;;;8.70;2.15;;;24.90;84.40;;;;;;6337379;22;19999;-74
2022/09/15 06:27:41;;;;;;;5.57;1.88;;;24.90;84.50;;;;;;6337555;22;19999;-74
2022/09/15 06:30:09;;;;;;;2.53;1.55;;;25.00;84.50;;;;;;6337199;22;20149;-78
2022/09/15 06:32:38;;;;;;;5.07;2.25;;;24.90;84.50;;;;;;6337217;22;19999;-79
2022/09/15 06:35:06;;;;;;;5.78;1.90;;;25.00;84.50;;;;;;6336760;22;20003;-78
2022/09/15 06:37:33;;;;;;;5.40;2.08;;;25.00;84.50;;;;;;6337192;22;20371;-78
2022/09/15 06:39:59;;;;;;;8.30;2.05;;;25.10;84.80;;;;;;6337161;22;20081;-78
2022/09/15 06:42:25;;;;;;;8.98;1.80;;;25.10;84.80;;;;;;6337087;22;20048;-78
2022/09/15 06:44:51;;;;;;;4.45;1.73;;;25.10;84.70;;;;;;6337515;22;20317;-78
2022/09/15 06:47:17;;;;;;;9.05;2.70;;;25.10;84.80;;;;;;6338570;22;20405;-79
2022/09/15 06:49:43;;;;;;;7.95;2.92;;;25.00;85.10;;;;;;6338375;22;19999;-78
2022/09/15 06:52:08;;;;;;;9.18;3.25;;;25.00;85.20;;;;;;6336936;22;20421;-77
2022/09/15 06:54:34;;;;;;;6.95;2.45;;;24.90;85.50;;;;;;6337008;22;19999;-78
2022/09/15 06:56:59;;;;;;;4.97;2.33;;;24.80;85.60;;;;;;6309358;22;20048;-77
2022/09/15 06:59:25;;;;;;;4.00;2.55;;;24.80;85.80;;;;;;6338231;22;20023;-78
2022/09/15 07:01:53;;;;;;;8.48;2.45;;;24.80;85.80;;;;;;6337117;22;20363;-78
2022/09/15 07:04:19;;;;;;;10.85;3.17;;;24.70;85.70;;;;;;6309186;22;20011;-74
2022/09/15 07:06:44;;;;;;;9.32;2.83;;;24.70;85.90;;;;;;6336270;22;20086;-74
2022/09/15 07:09:12;;;;;;;6.90;2.13;;;24.60;86.00;;;;;;6337342;22;20022;-74
2022/09/15 07:11:38;;;;;;;5.40;2.60;;;24.60;85.90;;;;;;6309599;22;20077;-74
2022/09/15 07:14:04;;;;;;;10.40;2.38;;;24.70;86.20;;;;;;6338263;22;20002;-74
2022/09/15 07:16:30;;;;;;;7.85;3.03;;;24.70;86.10;;;;;;6335777;22;20771;-74
2022/09/15 07:18:57;;;;;;;6.95;2.58;;;24.80;86.00;;;;;;6337209;22;20486;-78
2022/09/15 07:21:23;;;;;;;6.97;2.42;;;24.80;85.70;;;;;;6336015;22;20007;-78
2022/09/15 07:23:49;;;;;;;9.02;3.63;;;24.80;85.60;;;;;;6338040;22;20083;-79
2022/09/15 07:26:22;;;;;;;5.35;2.13;;;24.80;85.80;;;;;;6336722;22;20478;-78
2022/09/15 07:28:59;;;;;;;9.45;2.10;;;24.90;86.10;;;;;;6336336;22;20003;-78
2022/09/15 07:31:27;;;;;;;5.78;2.42;;;25.00;85.50;;;;;;6336737;22;20424;-78
2022/09/15 07:33:53;;;;;;;9.38;2.60;;;25.00;85.20;;;;;;6334055;22;19999;-78
2022/09/15 07:36:19;;;;;;;6.60;2.65;;;25.00;85.40;;;;;;6324035;22;20059;-79
2022/09/15 07:38:47;;;;;;;6.10;2.55;;;25.00;85.30;;;;;;6336253;22;19999;-78
2022/09/15 07:41:16;;;;;;;7.05;2.85;;;25.10;85.30;;;;;;6334190;22;20597;-78
2022/09/15 07:43:50;;;;;;;8.63;2.90;;;25.10;85.20;;;;;;6308560;22;20006;-78
2022/09/15 07:46:17;;;;;;;7.57;2.58;;;25.20;85.20;;;;;;6335674;22;20002;-74
2022/09/15 07:48:44;;;;;;;5.20;2.40;;;25.20;85.10;;;;;;6308837;22;20006;-74
2022/09/15 07:51:10;;;;;;;7.70;3.10;;;25.30;85.00;;;;;;6337102;22;19999;-74
2022/09/15 07:53:36;;;;;;;10.57;2.50;;;25.30;85.10;;;;;;6309660;22;19999;-74
2022/09/15 07:56:02;;;;;;;3.72;1.90;;;25.30;85.00;;;;;;6336491;22;20017;-74
2022/09/15 07:58:28;;;;;;;8.93;2.85;;;25.30;85.00;;;;;;6337165;22;20003;-74
2022/09/15 08:00:59;;;;;;;7.10;2.88;;;25.30;85.20;;;;;;6336878;22;20031;-74
2022/09/15 08:03:25;;;;;;;4.38;2.28;;;25.30;85.20;;;;;;6337894;22;19995;-74
2022/09/15 08:05:59;;;;;;;7.20;3.03;;;25.30;85.20;;;;;;6338773;22;20018;-74
2022/09/15 08:08:26;;;;;;;6.15;2.45;;;25.30;85.30;;;;;;6340152;22;20078;-74
2022/09/15 08:10:51;;;;;;;6.30;2.63;;;25.30;85.30;;;;;;6339140;22;19998;-74
2022/09/15 08:13:17;;;;;;;9.50;2.53;;;25.30;85.30;;;;;;6338220;22;20026;-74
2022/09/15 08:15:44;;;;;;;5.82;2.53;;;25.30;85.30;;;;;;6338293;22;20463;-74
2022/09/15 08:18:10;;;;;;;5.88;3.15;;;25.30;85.40;;;;;;6339731;22;19995;-74
2022/09/15 08:20:40;;;;;;;4.80;2.42;;;25.40;85.70;;;;;;6339219;22;20428;-75
2022/09/15 08:23:06;;;;;;;;;;;25.40;85.50;;;;;;6338481;22;20007;-74
2022/09/15 08:25:32;;;;;;;5.35;2.10;;;25.40;86.10;;;;;;6311350;22;19902;-74
2022/09/15 08:27:58;;;;;;;7.40;2.95;;;25.40;85.70;;;;;;6340092;22;19995;-74
2022/09/15 08:30:25;;;;;;;8.95;2.35;;;25.40;85.70;;;;;;6339741;22;20002;-74
2022/09/15 08:32:51;;;;;;;9.02;3.08;;;25.40;85.80;;;;;;6338665;22;20006;-75
2022/09/15 08:35:18;;;;;;;4.57;2.13;;;25.40;85.80;;;;;;6339077;22;20003;-74
2022/09/15 08:37:44;;;;;;;6.85;2.67;;;25.40;85.80;;;;;;6311752;22;20044;-74
2022/09/15 08:40:20;;;;;;;5.75;2.78;;;24.20;85.40;;;;;;6338362;22;20002;-74
2022/09/15 08:42:49;;;;;;;4.38;2.75;;;25.40;86.00;;;;;;6338399;22;20003;-75
2022/09/15 08:45:20;;;;;;;5.80;2.03;;;25.40;86.10;;;;;;6339307;22;20026;-74
2022/09/15 08:47:50;;;;;;;9.45;3.50;;;25.50;86.10;;;;;;6311605;22;20368;-75
2022/09/15 08:50:26;;;;;;;11.33;4.00;;;25.50;86.30;;;;;;6337267;22;20006;-75
2022/09/15 08:52:56;;;;;;;7.95;3.17;;;25.50;86.50;;;;;;6309956;22;20540;-75
2022/09/15 08:55:47;;;;;;;6.95;2.60;;;25.40;86.40;;;;;;6336806;22;20014;-75
2022/09/15 08:58:20;;;;;;;6.05;2.88;;;25.50;86.30;;;;;;6338242;22;19999;-75
2022/09/15 09:00:50;;;;;;;6.40;2.38;;;25.70;86.30;;;;;;6311149;22;20014;-74
2022/09/15 09:03:37;;;;;;;6.82;2.80;;;25.80;86.00;;;;;;6338531;22;20409;-74
2022/09/15 09:06:29;;;;;;;4.18;2.10;;;26.00;85.90;;;;;;6311034;22;20053;-74
2022/09/15 09:09:16;;;;;;;7.80;2.70;;;26.10;85.40;;;;;;6337825;22;20447;-75
2022/09/15 09:12:12;;;;;;;6.15;2.00;;;26.20;85.30;;;;;;6338769;22;19999;-80
2022/09/15 09:14:37;;;;;;;8.02;2.08;;;26.30;84.70;;;;;;6337873;22;19998;-79
2022/09/15 09:17:25;;;;;;;8.85;2.47;;;26.40;84.20;;;;;;6338278;22;20002;-80
2022/09/15 09:20:15;;;;;;;5.65;1.77;;;26.40;82.90;;;;;;6338916;22;19999;-79
2022/09/15 09:22:45;;;;;;;6.20;2.42;;;26.60;83.20;;;;;;6338292;22;20412;-79
2022/09/15 09:25:17;;;;;;;8.35;2.58;;;26.70;82.90;;;;;;6339289;22;20567;-78
2022/09/15 09:27:44;;;;;;;6.32;1.95;;;26.80;82.50;;;;;;6338725;22;20001;-79
2022/09/15 09:30:17;;;;;;;5.07;1.90;;;27.00;82.00;;;;;;6338801;22;20022;-79
2022/09/15 09:32:48;;;;;;;3.72;1.50;;;27.10;81.40;;;;;;6338082;22;19999;-79
2022/09/15 09:35:28;;;;;;;6.40;3.15;;;27.30;81.60;;;;;;6338181;22;19999;-79
2022/09/15 09:37:55;;;;;;;4.57;2.03;;;27.30;77.70;;;;;;6338651;22;20328;-78
2022/09/15 09:40:21;;;;;;;6.32;2.47;;;27.40;79.30;;;;;;6338459;22;20111;-79
2022/09/15 09:42:47;;;;;;;13.15;2.88;;;27.50;78.80;;;;;;6337776;22;20003;-78
2022/09/15 09:45:17;;;;;;;8.75;2.33;;;27.70;78.60;;;;;;6337842;22;20306;-79
2022/09/15 09:47:43;;;;;;;;;;;27.90;78.20;;;;;;6338602;22;20002;-80
2022/09/15 09:50:37;;;;;;;5.10;1.80;;;28.10;76.10;;;;;;6338253;22;19903;-79
2022/09/15 09:53:23;;;;;;;7.45;1.95;;;28.20;77.00;;;;;;6310457;22;20485;-79
2022/09/15 09:55:48;;;;;;;8.45;2.03;;;28.30;76.90;;;;;;6337951;22;20007;-78
2022/09/15 09:58:19;;;;;;;5.78;2.38;;;28.50;77.00;;;;;;6337519;22;20030;-78
2022/09/15 10:00:46;;;;;;;6.07;2.10;;;28.60;76.00;;;;;;6310467;22;20317;-78
2022/09/15 10:03:21;;;;;;;5.72;1.92;;;28.80;75.80;;;;;;6337801;22;20002;-78
2022/09/15 10:06:11;;;;;;;6.05;2.78;;;28.90;75.50;;;;;;6337705;22;20413;-78
2022/09/15 10:08:50;;;;;;;5.38;2.80;;;29.10;75.00;;;;;;6338414;22;20009;-78
2022/09/15 10:11:16;;;;;;;6.45;1.92;;;29.10;74.70;;;;;;6338563;22;20421;-78
2022/09/15 10:13:54;;;;;;;6.80;2.08;;;29.20;74.80;;;;;;6337814;22;20002;-78
2022/09/15 10:16:21;;;;;;;9.43;2.05;;;29.40;74.10;;;;;;6338647;22;20026;-79
2022/09/15 10:18:49;;;;;;;11.98;2.63;;;29.50;74.00;;;;;;6339037;22;20019;-78
2022/09/15 10:21:21;;;;;;;5.03;1.83;;;29.60;71.90;;;;;;6337247;22;20421;-78
2022/09/15 10:23:46;;;;;;;6.65;2.20;;;29.70;73.30;;;;;;6337528;22;19999;-79
2022/09/15 10:26:15;;;;;;;5.63;2.10;;;29.80;71.90;;;;;;6337237;22;20005;-78
2022/09/15 10:28:42;;;;;;;3.50;1.80;;;29.80;71.90;;;;;;6337767;22;19995;-78
2022/09/15 10:31:26;;;;;;;4.97;2.28;;;29.90;72.20;;;;;;6337253;22;20002;-78
2022/09/15 10:33:51;;;;;;;9.50;2.47;;;30.10;71.60;;;;;;6335797;22;19999;-79
2022/09/15 10:36:29;;;;;;;14.80;2.50;;;30.20;71.20;;;;;;6308159;22;20336;-78
2022/09/15 10:39:19;;;;;;;6.03;2.38;;;30.30;69.80;;;;;;6307465;22;20007;-78
2022/09/15 10:41:50;;;;;;;;;;;30.40;70.50;;;;;;6336606;22;20082;-78
2022/09/15 10:44:49;;;;;;;4.72;1.80;;;30.60;70.30;;;;;;6337976;22;19977;-78
2022/09/15 10:47:41;;;;;;;4.13;2.10;;;30.80;68.60;;;;;;6338360;22;20351;-78
2022/09/15 10:50:40;;;;;;;4.47;2.10;;;31.00;68.20;;;;;;6337860;22;20002;-78
2022/09/15 10:53:40;;;;;;;8.25;2.50;;;31.20;69.10;;;;;;6337676;22;20003;-78
2022/09/15 10:56:22;;;;;;;6.13;2.13;;;31.20;65.80;;;;;;6337975;22;20002;-78
2022/09/15 10:58:59;;;;;;;6.38;2.03;;;31.30;67.90;;;;;;6310410;22;20345;-78
2022/09/15 11:01:30;;;;;;;9.23;2.15;;;31.40;67.10;;;;;;6337244;22;20006;-78
2022/09/15 11:03:59;;;;;;;11.93;3.30;;;31.50;66.90;;;;;;6338298;22;20371;-78
2022/09/15 11:06:37;;;;;;;4.10;2.10;;;31.40;64.50;;;;;;6337901;22;20050;-78
2022/09/15 11:09:20;;;;;;;8.57;2.17;;;31.50;66.00;;;;;;6309760;22;19999;-78
2022/09/15 11:12:07;;;;;;;5.72;1.83;;;31.80;66.00;;;;;;6336876;22;20282;-78
2022/09/15 11:15:14;;;;;;;6.13;2.03;;;32.00;65.60;;;;;;6338262;22;20417;-78
2022/09/15 11:18:24;;;;;;;9.00;2.65;;;32.20;62.10;;;;;;6265342;22;20006;-78
2022/09/15 11:21:13;;;;;;;15.70;3.70;;;32.10;63.20;;;;;;6337745;22;19999;-77
2022/09/15 11:24:02;;;;;;;7.07;2.13;;;32.10;63.30;;;;;;6337639;22;20079;-78
2022/09/15 11:26:39;;;;;;;8.23;2.13;;;32.10;63.80;;;;;;6316749;22;20003;-78
2022/09/15 11:29:14;;;;;;;8.52;2.42;;;32.10;63.20;;;;;;6310906;22;20084;-78
2022/09/15 11:31:48;;;;;;;8.25;2.45;;;32.10;61.40;;;;;;6336629;22;19999;-78
2022/09/15 11:34:14;;;;;;;11.98;2.28;;;31.90;61.60;;;;;;6337990;22;20064;-78
2022/09/15 11:36:49;;;;;;;3.72;1.70;;;31.90;63.00;;;;;;6338143;22;20406;-78
2022/09/15 11:39:34;;;;;;;9.60;2.20;;;32.10;62.90;;;;;;6340218;22;20002;-78
2022/09/15 11:42:15;;;;;;;10.18;2.00;;;32.40;61.00;;;;;;6338533;22;20009;-78
2022/09/15 11:44:45;;;;;;;5.22;1.55;;;32.80;61.00;;;;;;6339610;22;20021;-76
2022/09/15 11:47:32;;;;;;;7.50;1.98;;;33.10;61.90;;;;;;6339906;22;20334;-77
2022/09/15 11:50:08;;;;;;;9.23;2.47;;;33.40;59.20;;;;;;6339576;22;20009;-77
2022/09/15 11:52:33;;;;;;;6.25;1.90;;;33.60;57.30;;;;;;6338822;22;19990;-77
2022/09/15 11:55:22;;;;;;;8.25;2.78;;;33.40;59.00;;;;;;6338913;22;20103;-77
2022/09/15 11:58:08;;;;;;;6.18;2.58;;;33.20;57.60;;;;;;6339418;22;20086;-77
2022/09/15 12:00:40;;;;;;;7.20;1.60;;;32.80;57.80;;;;;;6339090;22;20482;-78
2022/09/15 12:03:33;;;;;;;4.40;1.70;;;32.70;58.50;;;;;;6338398;22;20003;-76
2022/09/15 12:06:24;;;;;;;8.60;2.30;;;32.70;58.50;;;;;;6339233;22;20333;-76
2022/09/15 12:09:06;;;;;;;10.40;2.45;;;32.70;58.50;;;;;;6338325;22;20401;-76
2022/09/15 12:11:40;;;;;;;10.52;2.40;;;32.60;58.00;;;;;;6339367;22;19998;-76
2022/09/15 12:14:15;;;;;;;9.10;1.98;;;32.60;58.00;;;;;;6339012;22;19999;-75
2022/09/15 12:16:41;;;;;;;5.47;1.85;;;32.40;58.40;;;;;;6337982;22;20070;-75
2022/09/15 12:19:19;;;;;;;7.82;1.95;;;32.20;58.30;;;;;;6339254;22;20374;-75
2022/09/15 12:21:54;;;;;;;8.05;2.00;;;32.10;58.80;;;;;;6311921;22;20003;-75
2022/09/15 12:24:50;;;;;;;5.65;1.88;;;32.00;59.40;;;;;;6339265;22;20440;-75
2022/09/15 12:27:18;;;;;;;5.47;2.13;;;31.90;58.60;;;;;;6310793;22;20010;-75
2022/09/15 12:29:54;;;;;;;7.55;1.90;;;31.70;58.60;;;;;;6339202;22;20356;-75
2022/09/15 12:32:27;;;;;;;5.82;2.08;;;31.50;59.30;;;;;;6338684;22;20078;-76
2022/09/15 12:34:57;;;;;;;5.72;1.50;;;31.40;59.10;;;;;;6331057;22;20463;-76
2022/09/15 12:37:28;;;;;;;7.43;1.80;;;31.40;59.50;;;;;;6336135;22;20003;-75
2022/09/15 12:39:54;;;;;;;10.40;2.03;;;31.30;59.70;;;;;;6331367;22;20022;-75
2022/09/15 12:42:31;;;;;;;7.43;1.63;;;31.20;59.80;;;;;;6337497;22;20335;-76
2022/09/15 12:45:23;;;;;;;7.28;1.60;;;31.20;60.00;;;;;;6331394;22;20030;-76
2022/09/15 12:48:04;;;;;;;8.27;1.63;;;31.20;59.90;;;;;;6338694;22;19999;-76
2022/09/15 12:50:38;;;;;;;8.07;2.47;;;31.10;60.20;;;;;;6329193;22;20078;-77
2022/09/15 12:53:20;;;;;;;6.13;1.80;;;31.10;59.60;;;;;;6311509;22;20328;-76
2022/09/15 12:55:58;;;;;;;6.65;2.67;;;31.00;60.20;;;;;;6333779;22;20002;-76
2022/09/15 12:58:38;;;;;;;9.15;2.72;;;30.80;60.20;;;;;;6338928;22;20007;-76
2022/09/15 13:01:12;;;;;;;;;;;30.70;60.40;;;;;;6338308;22;20070;-75
2022/09/15 13:03:38;;;;;;;8.98;2.22;;;30.60;60.70;;;;;;6309444;22;20252;-75
2022/09/15 13:06:25;;;;;;;9.32;2.95;;;30.50;61.20;;;;;;6338414;22;20063;-76
2022/09/15 13:09:23;;;;;;;6.10;1.98;;;30.40;61.50;;;;;;6338480;22;20056;-76
2022/09/15 13:11:50;;;;;;;7.30;2.22;;;30.30;61.90;;;;;;6338920;22;20418;-76
2022/09/15 13:14:31;;;;;;;9.18;2.45;;;30.30;62.20;;;;;;6338632;22;19998;-77
2022/09/15 13:17:17;;;;;;;6.72;2.40;;;30.20;62.80;;;;;;6338099;22;20326;-76